RJSF(METAR)
02/01 20:00
METAR RJSF 011100Z 02006KT 9999 FEW030 BKN080 01/M05 Q1007 RMK
1CU030 5AC080 A2974=
戻る
トップページへ戻る
IMOC Co,.Ltd.